sensor_id;sensor_type;location;lat;lon;timestamp;P1;durP1;ratioP1;P2;durP2;ratioP2
78169;SDS011;67412;49.892;14.490;2023-04-26T00:00:34;8.15;;;2.40;;
78169;SDS011;67412;49.892;14.490;2023-04-26T00:03:00;6.07;;;1.80;;
78169;SDS011;67412;49.892;14.490;2023-04-26T00:05:25;8.63;;;2.10;;
78169;SDS011;67412;49.892;14.490;2023-04-26T00:07:53;6.28;;;1.70;;
78169;SDS011;67412;49.892;14.490;2023-04-26T00:10:18;6.75;;;1.88;;
78169;SDS011;67412;49.892;14.490;2023-04-26T00:12:44;7.53;;;1.98;;
78169;SDS011;67412;49.892;14.490;2023-04-26T00:15:09;8.98;;;1.77;;
78169;SDS011;67412;49.892;14.490;2023-04-26T00:17:35;9.07;;;2.30;;
78169;SDS011;67412;49.892;14.490;2023-04-26T00:20:00;8.98;;;2.33;;
78169;SDS011;67412;49.892;14.490;2023-04-26T00:22:27;5.93;;;1.77;;
78169;SDS011;67412;49.892;14.490;2023-04-26T00:24:52;4.63;;;1.73;;
78169;SDS011;67412;49.892;14.490;2023-04-26T00:27:18;6.65;;;2.05;;
78169;SDS011;67412;49.892;14.490;2023-04-26T00:29:43;5.78;;;1.60;;
78169;SDS011;67412;49.892;14.490;2023-04-26T00:32:08;8.05;;;1.80;;
78169;SDS011;67412;49.892;14.490;2023-04-26T00:34:34;7.03;;;2.40;;
78169;SDS011;67412;49.892;14.490;2023-04-26T00:37:01;6.82;;;2.08;;
78169;SDS011;67412;49.892;14.490;2023-04-26T00:39:27;6.57;;;2.08;;
78169;SDS011;67412;49.892;14.490;2023-04-26T00:41:53;9.10;;;2.60;;
78169;SDS011;67412;49.892;14.490;2023-04-26T00:44:18;8.75;;;2.20;;
78169;SDS011;67412;49.892;14.490;2023-04-26T00:46:43;8.27;;;1.75;;
78169;SDS011;67412;49.892;14.490;2023-04-26T00:49:10;7.65;;;2.05;;
78169;SDS011;67412;49.892;14.490;2023-04-26T00:51:41;6.72;;;1.73;;
78169;SDS011;67412;49.892;14.490;2023-04-26T00:54:07;13.18;;;2.40;;
78169;SDS011;67412;49.892;14.490;2023-04-26T00:56:33;4.55;;;1.85;;
78169;SDS011;67412;49.892;14.490;2023-04-26T00:59:00;6.85;;;1.70;;
78169;SDS011;67412;49.892;14.490;2023-04-26T01:01:27;6.13;;;1.45;;
78169;SDS011;67412;49.892;14.490;2023-04-26T01:03:53;4.55;;;1.60;;
78169;SDS011;67412;49.892;14.490;2023-04-26T01:06:19;5.13;;;2.15;;
78169;SDS011;67412;49.892;14.490;2023-04-26T01:08:44;7.30;;;1.73;;
78169;SDS011;67412;49.892;14.490;2023-04-26T01:11:10;6.65;;;1.85;;
78169;SDS011;67412;49.892;14.490;2023-04-26T01:13:35;6.05;;;1.38;;
78169;SDS011;67412;49.892;14.490;2023-04-26T01:16:02;7.15;;;1.98;;
78169;SDS011;67412;49.892;14.490;2023-04-26T01:18:28;6.43;;;1.88;;
78169;SDS011;67412;49.892;14.490;2023-04-26T01:20:54;5.43;;;1.70;;
78169;SDS011;67412;49.892;14.490;2023-04-26T01:23:20;7.50;;;1.85;;
78169;SDS011;67412;49.892;14.490;2023-04-26T01:25:46;6.95;;;1.65;;
78169;SDS011;67412;49.892;14.490;2023-04-26T01:28:12;7.72;;;1.83;;
78169;SDS011;67412;49.892;14.490;2023-04-26T01:30:37;3.67;;;1.17;;
78169;SDS011;67412;49.892;14.490;2023-04-26T01:33:03;5.32;;;1.48;;
78169;SDS011;67412;49.892;14.490;2023-04-26T01:35:28;4.93;;;1.67;;
78169;SDS011;67412;49.892;14.490;2023-04-26T01:37:53;7.63;;;1.83;;
78169;SDS011;67412;49.892;14.490;2023-04-26T01:40:19;6.80;;;1.58;;
78169;SDS011;67412;49.892;14.490;2023-04-26T01:42:45;6.40;;;1.85;;
78169;SDS011;67412;49.892;14.490;2023-04-26T01:45:10;7.72;;;1.95;;
78169;SDS011;67412;49.892;14.490;2023-04-26T01:47:35;6.60;;;1.73;;
78169;SDS011;67412;49.892;14.490;2023-04-26T01:50:01;4.13;;;1.90;;
78169;SDS011;67412;49.892;14.490;2023-04-26T01:52:26;7.72;;;1.92;;
78169;SDS011;67412;49.892;14.490;2023-04-26T01:54:52;4.35;;;1.50;;
78169;SDS011;67412;49.892;14.490;2023-04-26T01:57:17;5.43;;;1.00;;
78169;SDS011;67412;49.892;14.490;2023-04-26T01:59:42;5.15;;;1.58;;
78169;SDS011;67412;49.892;14.490;2023-04-26T02:02:07;4.53;;;1.50;;
78169;SDS011;67412;49.892;14.490;2023-04-26T02:04:33;6.28;;;1.50;;
78169;SDS011;67412;49.892;14.490;2023-04-26T02:06:59;4.13;;;1.40;;
78169;SDS011;67412;49.892;14.490;2023-04-26T02:09:24;5.93;;;1.70;;
78169;SDS011;67412;49.892;14.490;2023-04-26T02:11:50;6.57;;;1.60;;
78169;SDS011;67412;49.892;14.490;2023-04-26T02:14:15;5.72;;;1.77;;
78169;SDS011;67412;49.892;14.490;2023-04-26T02:16:41;7.32;;;1.52;;
78169;SDS011;67412;49.892;14.490;2023-04-26T02:19:07;6.18;;;1.58;;
78169;SDS011;67412;49.892;14.490;2023-04-26T02:21:50;6.10;;;1.65;;
78169;SDS011;67412;49.892;14.490;2023-04-26T02:24:19;4.38;;;1.55;;
78169;SDS011;67412;49.892;14.490;2023-04-26T02:26:46;4.80;;;1.73;;
78169;SDS011;67412;49.892;14.490;2023-04-26T02:29:11;5.75;;;1.48;;
78169;SDS011;67412;49.892;14.490;2023-04-26T02:31:36;5.28;;;1.52;;
78169;SDS011;67412;49.892;14.490;2023-04-26T02:34:02;6.18;;;1.50;;
78169;SDS011;67412;49.892;14.490;2023-04-26T02:36:27;7.68;;;1.55;;
78169;SDS011;67412;49.892;14.490;2023-04-26T02:38:52;6.07;;;2.00;;
78169;SDS011;67412;49.892;14.490;2023-04-26T02:41:18;4.63;;;1.40;;
78169;SDS011;67412;49.892;14.490;2023-04-26T02:43:43;6.80;;;1.60;;
78169;SDS011;67412;49.892;14.490;2023-04-26T02:46:08;9.35;;;1.80;;
78169;SDS011;67412;49.892;14.490;2023-04-26T02:48:34;6.38;;;1.80;;
78169;SDS011;67412;49.892;14.490;2023-04-26T02:50:59;5.18;;;1.70;;
78169;SDS011;67412;49.892;14.490;2023-04-26T02:53:25;5.50;;;1.55;;
78169;SDS011;67412;49.892;14.490;2023-04-26T02:55:50;6.55;;;1.67;;
78169;SDS011;67412;49.892;14.490;2023-04-26T02:58:16;8.13;;;1.73;;
78169;SDS011;67412;49.892;14.490;2023-04-26T03:00:47;5.32;;;1.60;;
78169;SDS011;67412;49.892;14.490;2023-04-26T03:03:13;6.32;;;1.88;;
78169;SDS011;67412;49.892;14.490;2023-04-26T03:05:38;5.63;;;1.63;;
78169;SDS011;67412;49.892;14.490;2023-04-26T03:08:04;6.65;;;1.90;;
78169;SDS011;67412;49.892;14.490;2023-04-26T03:10:30;5.70;;;1.50;;
78169;SDS011;67412;49.892;14.490;2023-04-26T03:12:55;5.25;;;1.30;;
78169;SDS011;67412;49.892;14.490;2023-04-26T03:15:20;6.97;;;1.75;;
78169;SDS011;67412;49.892;14.490;2023-04-26T03:17:46;5.43;;;1.73;;
78169;SDS011;67412;49.892;14.490;2023-04-26T03:20:11;5.82;;;1.63;;
78169;SDS011;67412;49.892;14.490;2023-04-26T03:22:37;6.90;;;2.00;;
78169;SDS011;67412;49.892;14.490;2023-04-26T03:25:03;8.70;;;1.83;;
78169;SDS011;67412;49.892;14.490;2023-04-26T03:27:29;6.82;;;1.52;;
78169;SDS011;67412;49.892;14.490;2023-04-26T03:29:54;6.90;;;1.80;;
78169;SDS011;67412;49.892;14.490;2023-04-26T03:32:20;4.72;;;1.60;;
78169;SDS011;67412;49.892;14.490;2023-04-26T03:34:45;5.38;;;1.40;;
78169;SDS011;67412;49.892;14.490;2023-04-26T03:37:12;7.00;;;1.67;;
78169;SDS011;67412;49.892;14.490;2023-04-26T03:39:38;6.30;;;1.67;;
78169;SDS011;67412;49.892;14.490;2023-04-26T03:42:03;5.78;;;1.58;;
78169;SDS011;67412;49.892;14.490;2023-04-26T03:44:29;6.30;;;1.80;;
78169;SDS011;67412;49.892;14.490;2023-04-26T03:46:54;5.85;;;1.48;;
78169;SDS011;67412;49.892;14.490;2023-04-26T03:49:21;6.38;;;1.80;;
78169;SDS011;67412;49.892;14.490;2023-04-26T03:51:46;4.90;;;1.60;;
78169;SDS011;67412;49.892;14.490;2023-04-26T03:54:12;6.05;;;1.80;;
78169;SDS011;67412;49.892;14.490;2023-04-26T03:56:37;5.07;;;1.63;;
78169;SDS011;67412;49.892;14.490;2023-04-26T03:59:03;5.88;;;1.50;;
78169;SDS011;67412;49.892;14.490;2023-04-26T04:01:29;2.92;;;1.13;;
78169;SDS011;67412;49.892;14.490;2023-04-26T04:03:55;4.25;;;1.45;;
78169;SDS011;67412;49.892;14.490;2023-04-26T04:06:20;5.68;;;1.50;;
78169;SDS011;67412;49.892;14.490;2023-04-26T04:08:46;5.75;;;1.45;;
78169;SDS011;67412;49.892;14.490;2023-04-26T04:11:11;5.07;;;1.40;;
78169;SDS011;67412;49.892;14.490;2023-04-26T04:13:36;3.25;;;1.10;;
78169;SDS011;67412;49.892;14.490;2023-04-26T04:16:02;4.32;;;1.50;;
78169;SDS011;67412;49.892;14.490;2023-04-26T04:18:28;5.38;;;1.13;;
78169;SDS011;67412;49.892;14.490;2023-04-26T04:20:53;6.65;;;1.55;;
78169;SDS011;67412;49.892;14.490;2023-04-26T04:23:19;6.05;;;1.83;;
78169;SDS011;67412;49.892;14.490;2023-04-26T04:25:44;6.38;;;1.67;;
78169;SDS011;67412;49.892;14.490;2023-04-26T04:28:11;4.85;;;1.52;;
78169;SDS011;67412;49.892;14.490;2023-04-26T04:30:37;3.80;;;1.40;;
78169;SDS011;67412;49.892;14.490;2023-04-26T04:33:02;4.53;;;1.13;;
78169;SDS011;67412;49.892;14.490;2023-04-26T04:35:29;6.43;;;1.65;;
78169;SDS011;67412;49.892;14.490;2023-04-26T04:37:57;4.65;;;1.30;;
78169;SDS011;67412;49.892;14.490;2023-04-26T04:40:23;9.10;;;1.35;;
78169;SDS011;67412;49.892;14.490;2023-04-26T04:42:48;6.90;;;1.30;;
78169;SDS011;67412;49.892;14.490;2023-04-26T04:45:14;4.57;;;1.27;;
78169;SDS011;67412;49.892;14.490;2023-04-26T04:47:41;5.85;;;1.55;;
78169;SDS011;67412;49.892;14.490;2023-04-26T04:50:07;4.70;;;1.50;;
78169;SDS011;67412;49.892;14.490;2023-04-26T04:52:33;5.60;;;1.45;;
78169;SDS011;67412;49.892;14.490;2023-04-26T04:54:59;6.43;;;1.80;;
78169;SDS011;67412;49.892;14.490;2023-04-26T04:57:25;6.97;;;1.75;;
78169;SDS011;67412;49.892;14.490;2023-04-26T04:59:51;3.45;;;1.52;;
78169;SDS011;67412;49.892;14.490;2023-04-26T05:02:16;5.40;;;1.88;;
78169;SDS011;67412;49.892;14.490;2023-04-26T05:04:41;7.38;;;1.73;;
78169;SDS011;67412;49.892;14.490;2023-04-26T05:07:07;5.30;;;1.65;;
78169;SDS011;67412;49.892;14.490;2023-04-26T05:09:33;4.53;;;1.42;;
78169;SDS011;67412;49.892;14.490;2023-04-26T05:11:59;6.15;;;1.73;;
78169;SDS011;67412;49.892;14.490;2023-04-26T05:14:24;7.60;;;2.22;;
78169;SDS011;67412;49.892;14.490;2023-04-26T05:16:50;6.68;;;1.38;;
78169;SDS011;67412;49.892;14.490;2023-04-26T05:19:15;5.68;;;1.85;;
78169;SDS011;67412;49.892;14.490;2023-04-26T05:21:40;4.15;;;1.58;;
78169;SDS011;67412;49.892;14.490;2023-04-26T05:24:06;4.68;;;1.58;;
78169;SDS011;67412;49.892;14.490;2023-04-26T05:26:31;5.13;;;1.38;;
78169;SDS011;67412;49.892;14.490;2023-04-26T05:31:23;5.00;;;1.60;;
78169;SDS011;67412;49.892;14.490;2023-04-26T05:33:49;5.85;;;1.60;;
78169;SDS011;67412;49.892;14.490;2023-04-26T05:36:14;4.72;;;1.52;;
78169;SDS011;67412;49.892;14.490;2023-04-26T05:38:39;7.88;;;1.90;;
78169;SDS011;67412;49.892;14.490;2023-04-26T05:41:05;5.65;;;1.48;;
78169;SDS011;67412;49.892;14.490;2023-04-26T05:43:30;5.55;;;1.40;;
78169;SDS011;67412;49.892;14.490;2023-04-26T05:45:55;6.03;;;2.10;;
78169;SDS011;67412;49.892;14.490;2023-04-26T05:48:21;6.75;;;2.30;;
78169;SDS011;67412;49.892;14.490;2023-04-26T05:50:48;5.90;;;1.60;;
78169;SDS011;67412;49.892;14.490;2023-04-26T05:53:14;4.03;;;1.65;;
78169;SDS011;67412;49.892;14.490;2023-04-26T05:55:40;6.88;;;1.77;;
78169;SDS011;67412;49.892;14.490;2023-04-26T05:58:06;4.07;;;1.42;;
78169;SDS011;67412;49.892;14.490;2023-04-26T06:00:32;2.88;;;1.10;;
78169;SDS011;67412;49.892;14.490;2023-04-26T06:02:57;4.40;;;1.63;;
78169;SDS011;67412;49.892;14.490;2023-04-26T06:05:23;6.43;;;1.55;;
78169;SDS011;67412;49.892;14.490;2023-04-26T06:07:48;4.80;;;1.95;;
78169;SDS011;67412;49.892;14.490;2023-04-26T06:10:14;4.50;;;2.00;;
78169;SDS011;67412;49.892;14.490;2023-04-26T06:12:40;6.38;;;1.70;;
78169;SDS011;67412;49.892;14.490;2023-04-26T06:15:06;4.20;;;1.35;;
78169;SDS011;67412;49.892;14.490;2023-04-26T06:17:31;3.30;;;1.20;;
78169;SDS011;67412;49.892;14.490;2023-04-26T06:19:57;3.40;;;1.52;;
78169;SDS011;67412;49.892;14.490;2023-04-26T06:22:22;5.22;;;1.88;;
78169;SDS011;67412;49.892;14.490;2023-04-26T06:24:48;6.10;;;2.17;;
78169;SDS011;67412;49.892;14.490;2023-04-26T06:27:13;4.43;;;1.85;;
78169;SDS011;67412;49.892;14.490;2023-04-26T06:29:38;5.95;;;1.98;;
78169;SDS011;67412;49.892;14.490;2023-04-26T06:32:04;7.10;;;2.25;;
78169;SDS011;67412;49.892;14.490;2023-04-26T06:34:30;7.88;;;1.88;;
78169;SDS011;67412;49.892;14.490;2023-04-26T06:36:55;6.38;;;1.65;;
78169;SDS011;67412;49.892;14.490;2023-04-26T06:39:21;6.90;;;2.25;;
78169;SDS011;67412;49.892;14.490;2023-04-26T06:41:46;8.50;;;2.30;;
78169;SDS011;67412;49.892;14.490;2023-04-26T06:44:11;9.32;;;2.25;;
78169;SDS011;67412;49.892;14.490;2023-04-26T06:46:36;6.90;;;2.40;;
78169;SDS011;67412;49.892;14.490;2023-04-26T06:49:02;5.10;;;1.65;;
78169;SDS011;67412;49.892;14.490;2023-04-26T06:51:27;7.55;;;2.53;;
78169;SDS011;67412;49.892;14.490;2023-04-26T06:53:53;6.55;;;2.10;;
78169;SDS011;67412;49.892;14.490;2023-04-26T06:56:19;5.57;;;2.22;;
78169;SDS011;67412;49.892;14.490;2023-04-26T06:58:58;8.18;;;2.35;;
78169;SDS011;67412;49.892;14.490;2023-04-26T07:01:26;7.95;;;2.42;;
78169;SDS011;67412;49.892;14.490;2023-04-26T07:03:53;7.18;;;2.20;;
78169;SDS011;67412;49.892;14.490;2023-04-26T07:06:22;5.57;;;1.65;;
78169;SDS011;67412;49.892;14.490;2023-04-26T07:08:48;6.30;;;2.25;;
78169;SDS011;67412;49.892;14.490;2023-04-26T07:11:14;7.80;;;2.47;;
78169;SDS011;67412;49.892;14.490;2023-04-26T07:13:39;7.80;;;2.28;;
78169;SDS011;67412;49.892;14.490;2023-04-26T07:16:04;6.57;;;2.30;;
78169;SDS011;67412;49.892;14.490;2023-04-26T07:18:30;7.90;;;2.60;;
78169;SDS011;67412;49.892;14.490;2023-04-26T07:20:55;10.43;;;2.75;;
78169;SDS011;67412;49.892;14.490;2023-04-26T07:23:21;6.28;;;2.40;;
78169;SDS011;67412;49.892;14.490;2023-04-26T07:25:46;10.45;;;3.25;;
78169;SDS011;67412;49.892;14.490;2023-04-26T07:28:12;6.78;;;2.53;;
78169;SDS011;67412;49.892;14.490;2023-04-26T07:30:37;6.90;;;2.55;;
78169;SDS011;67412;49.892;14.490;2023-04-26T07:33:02;6.05;;;2.08;;
78169;SDS011;67412;49.892;14.490;2023-04-26T07:35:28;7.18;;;2.25;;
78169;SDS011;67412;49.892;14.490;2023-04-26T07:37:54;6.45;;;2.22;;
78169;SDS011;67412;49.892;14.490;2023-04-26T07:40:19;9.02;;;2.90;;
78169;SDS011;67412;49.892;14.490;2023-04-26T07:42:46;6.78;;;2.33;;
78169;SDS011;67412;49.892;14.490;2023-04-26T07:45:12;5.75;;;2.05;;
78169;SDS011;67412;49.892;14.490;2023-04-26T07:47:37;7.53;;;2.65;;
78169;SDS011;67412;49.892;14.490;2023-04-26T07:50:02;6.78;;;2.33;;
78169;SDS011;67412;49.892;14.490;2023-04-26T07:52:28;6.68;;;2.30;;
78169;SDS011;67412;49.892;14.490;2023-04-26T07:54:53;7.85;;;2.63;;
78169;SDS011;67412;49.892;14.490;2023-04-26T07:57:19;10.23;;;3.15;;
78169;SDS011;67412;49.892;14.490;2023-04-26T07:59:44;11.10;;;3.20;;
78169;SDS011;67412;49.892;14.490;2023-04-26T08:02:10;7.88;;;2.95;;
78169;SDS011;67412;49.892;14.490;2023-04-26T08:04:35;13.30;;;2.85;;
78169;SDS011;67412;49.892;14.490;2023-04-26T08:07:00;8.57;;;3.47;;
78169;SDS011;67412;49.892;14.490;2023-04-26T08:09:27;6.80;;;2.30;;
78169;SDS011;67412;49.892;14.490;2023-04-26T08:11:53;4.03;;;2.05;;
78169;SDS011;67412;49.892;14.490;2023-04-26T08:14:18;10.95;;;3.20;;
78169;SDS011;67412;49.892;14.490;2023-04-26T08:16:44;5.40;;;2.60;;
78169;SDS011;67412;49.892;14.490;2023-04-26T08:19:09;10.32;;;3.13;;
78169;SDS011;67412;49.892;14.490;2023-04-26T08:21:35;9.60;;;2.85;;
78169;SDS011;67412;49.892;14.490;2023-04-26T08:24:00;9.07;;;2.50;;
78169;SDS011;67412;49.892;14.490;2023-04-26T08:26:25;7.97;;;2.63;;
78169;SDS011;67412;49.892;14.490;2023-04-26T08:28:51;10.68;;;3.45;;
78169;SDS011;67412;49.892;14.490;2023-04-26T08:31:16;11.00;;;3.67;;
78169;SDS011;67412;49.892;14.490;2023-04-26T08:33:42;11.48;;;3.45;;
78169;SDS011;67412;49.892;14.490;2023-04-26T08:36:07;12.80;;;3.60;;
78169;SDS011;67412;49.892;14.490;2023-04-26T08:38:32;8.18;;;3.38;;
78169;SDS011;67412;49.892;14.490;2023-04-26T08:40:58;16.42;;;3.85;;
78169;SDS011;67412;49.892;14.490;2023-04-26T08:43:27;10.10;;;3.60;;
78169;SDS011;67412;49.892;14.490;2023-04-26T08:45:53;15.35;;;4.40;;
78169;SDS011;67412;49.892;14.490;2023-04-26T08:48:19;8.57;;;3.28;;
78169;SDS011;67412;49.892;14.490;2023-04-26T08:50:46;8.52;;;3.17;;
78169;SDS011;67412;49.892;14.490;2023-04-26T08:53:13;8.15;;;3.20;;
78169;SDS011;67412;49.892;14.490;2023-04-26T08:55:39;7.32;;;2.85;;
78169;SDS011;67412;49.892;14.490;2023-04-26T08:58:06;9.60;;;3.17;;
78169;SDS011;67412;49.892;14.490;2023-04-26T09:00:32;11.98;;;3.75;;
78169;SDS011;67412;49.892;14.490;2023-04-26T09:02:58;9.00;;;2.85;;
78169;SDS011;67412;49.892;14.490;2023-04-26T09:05:23;7.70;;;2.85;;
78169;SDS011;67412;49.892;14.490;2023-04-26T09:07:50;8.70;;;2.38;;
78169;SDS011;67412;49.892;14.490;2023-04-26T09:10:20;6.25;;;1.92;;
78169;SDS011;67412;49.892;14.490;2023-04-26T09:12:48;8.45;;;2.38;;
78169;SDS011;67412;49.892;14.490;2023-04-26T09:15:16;7.32;;;2.65;;
78169;SDS011;67412;49.892;14.490;2023-04-26T09:17:41;7.38;;;2.90;;
78169;SDS011;67412;49.892;14.490;2023-04-26T09:20:16;9.00;;;3.10;;
78169;SDS011;67412;49.892;14.490;2023-04-26T09:22:53;6.72;;;2.60;;
78169;SDS011;67412;49.892;14.490;2023-04-26T09:25:28;7.75;;;2.45;;
78169;SDS011;67412;49.892;14.490;2023-04-26T09:27:56;6.05;;;1.67;;
78169;SDS011;67412;49.892;14.490;2023-04-26T09:30:22;5.57;;;1.80;;
78169;SDS011;67412;49.892;14.490;2023-04-26T09:32:52;5.43;;;1.70;;
78169;SDS011;67412;49.892;14.490;2023-04-26T09:35:30;5.93;;;1.85;;
78169;SDS011;67412;49.892;14.490;2023-04-26T09:40:23;6.68;;;1.67;;
78169;SDS011;67412;49.892;14.490;2023-04-26T09:42:58;4.35;;;1.58;;
78169;SDS011;67412;49.892;14.490;2023-04-26T09:45:26;3.70;;;1.40;;
78169;SDS011;67412;49.892;14.490;2023-04-26T09:47:52;2.88;;;1.30;;
78169;SDS011;67412;49.892;14.490;2023-04-26T09:50:25;3.15;;;1.27;;
78169;SDS011;67412;49.892;14.490;2023-04-26T09:52:55;5.53;;;1.75;;
78169;SDS011;67412;49.892;14.490;2023-04-26T09:55:30;2.83;;;1.20;;
78169;SDS011;67412;49.892;14.490;2023-04-26T09:57:58;4.97;;;1.65;;
78169;SDS011;67412;49.892;14.490;2023-04-26T10:00:25;5.70;;;1.52;;
78169;SDS011;67412;49.892;14.490;2023-04-26T10:05:20;3.00;;;1.52;;
78169;SDS011;67412;49.892;14.490;2023-04-26T10:07:46;4.68;;;2.08;;
78169;SDS011;67412;49.892;14.490;2023-04-26T10:10:12;6.10;;;1.50;;
78169;SDS011;67412;49.892;14.490;2023-04-26T10:12:39;6.25;;;1.60;;
78169;SDS011;67412;49.892;14.490;2023-04-26T10:15:07;3.85;;;1.40;;
78169;SDS011;67412;49.892;14.490;2023-04-26T10:17:33;3.75;;;1.58;;
78169;SDS011;67412;49.892;14.490;2023-04-26T10:19:58;1.80;;;1.17;;
78169;SDS011;67412;49.892;14.490;2023-04-26T10:22:28;6.60;;;1.92;;
78169;SDS011;67412;49.892;14.490;2023-04-26T10:24:57;4.25;;;1.42;;
78169;SDS011;67412;49.892;14.490;2023-04-26T10:30:07;6.85;;;1.50;;
78169;SDS011;67412;49.892;14.490;2023-04-26T10:33:19;4.68;;;1.70;;
78169;SDS011;67412;49.892;14.490;2023-04-26T10:35:20;5.80;;;1.92;;
78169;SDS011;67412;49.892;14.490;2023-04-26T10:45:41;4.50;;;1.20;;
78169;SDS011;67412;49.892;14.490;2023-04-26T10:54:11;3.35;;;1.10;;
78169;SDS011;67412;49.892;14.490;2023-04-26T11:01:33;6.55;;;1.10;;
78169;SDS011;67412;49.892;14.490;2023-04-26T11:06:24;3.53;;;0.90;;
78169;SDS011;67412;49.892;14.490;2023-04-26T11:08:50;4.28;;;1.10;;
78169;SDS011;67412;49.892;14.490;2023-04-26T11:11:19;5.07;;;1.05;;
78169;SDS011;67412;49.892;14.490;2023-04-26T11:13:50;4.88;;;1.02;;
78169;SDS011;67412;49.892;14.490;2023-04-26T11:16:15;1.02;;;0.52;;
78169;SDS011;67412;49.892;14.490;2023-04-26T11:18:42;2.08;;;0.80;;
78169;SDS011;67412;49.892;14.490;2023-04-26T11:21:09;2.03;;;0.88;;
78169;SDS011;67412;49.892;14.490;2023-04-26T11:23:36;3.67;;;1.20;;
78169;SDS011;67412;49.892;14.490;2023-04-26T11:26:05;4.25;;;0.90;;
78169;SDS011;67412;49.892;14.490;2023-04-26T11:28:33;2.05;;;0.82;;
78169;SDS011;67412;49.892;14.490;2023-04-26T11:31:00;2.88;;;1.05;;
78169;SDS011;67412;49.892;14.490;2023-04-26T11:33:26;2.70;;;0.80;;
78169;SDS011;67412;49.892;14.490;2023-04-26T11:35:54;2.05;;;0.93;;
78169;SDS011;67412;49.892;14.490;2023-04-26T11:38:25;2.25;;;0.85;;
78169;SDS011;67412;49.892;14.490;2023-04-26T11:40:52;2.50;;;0.77;;
78169;SDS011;67412;49.892;14.490;2023-04-26T11:43:21;4.70;;;0.90;;
78169;SDS011;67412;49.892;14.490;2023-04-26T11:45:46;2.92;;;0.98;;
78169;SDS011;67412;49.892;14.490;2023-04-26T11:48:12;3.65;;;1.17;;
78169;SDS011;67412;49.892;14.490;2023-04-26T11:53:05;4.63;;;0.70;;
78169;SDS011;67412;49.892;14.490;2023-04-26T11:55:32;4.28;;;1.10;;
78169;SDS011;67412;49.892;14.490;2023-04-26T11:57:58;2.22;;;0.70;;
78169;SDS011;67412;49.892;14.490;2023-04-26T12:00:25;5.30;;;1.10;;
78169;SDS011;67412;49.892;14.490;2023-04-26T12:02:51;4.18;;;1.00;;
78169;SDS011;67412;49.892;14.490;2023-04-26T12:05:35;1.10;;;0.43;;
78169;SDS011;67412;49.892;14.490;2023-04-26T12:08:00;4.93;;;1.05;;
78169;SDS011;67412;49.892;14.490;2023-04-26T12:10:27;5.68;;;1.40;;
78169;SDS011;67412;49.892;14.490;2023-04-26T12:12:55;2.85;;;1.08;;
78169;SDS011;67412;49.892;14.490;2023-04-26T12:15:24;5.32;;;0.88;;
78169;SDS011;67412;49.892;14.490;2023-04-26T12:17:57;3.47;;;1.00;;
78169;SDS011;67412;49.892;14.490;2023-04-26T12:20:34;2.90;;;1.00;;
78169;SDS011;67412;49.892;14.490;2023-04-26T12:25:27;1.65;;;0.82;;
78169;SDS011;67412;49.892;14.490;2023-04-26T12:27:53;4.60;;;0.82;;
78169;SDS011;67412;49.892;14.490;2023-04-26T12:30:19;3.72;;;0.93;;
78169;SDS011;67412;49.892;14.490;2023-04-26T12:32:45;2.40;;;0.95;;
78169;SDS011;67412;49.892;14.490;2023-04-26T12:35:11;4.25;;;1.00;;
78169;SDS011;67412;49.892;14.490;2023-04-26T12:37:36;3.63;;;0.80;;
78169;SDS011;67412;49.892;14.490;2023-04-26T12:40:02;1.67;;;0.90;;
78169;SDS011;67412;49.892;14.490;2023-04-26T12:42:27;2.47;;;0.77;;
78169;SDS011;67412;49.892;14.490;2023-04-26T12:44:52;1.95;;;0.70;;
78169;SDS011;67412;49.892;14.490;2023-04-26T12:47:18;2.80;;;0.93;;
78169;SDS011;67412;49.892;14.490;2023-04-26T12:49:43;3.47;;;1.08;;
78169;SDS011;67412;49.892;14.490;2023-04-26T12:52:08;3.10;;;0.82;;
78169;SDS011;67412;49.892;14.490;2023-04-26T12:54:34;1.92;;;0.80;;
78169;SDS011;67412;49.892;14.490;2023-04-26T12:56:59;3.33;;;0.73;;
78169;SDS011;67412;49.892;14.490;2023-04-26T12:59:26;3.50;;;0.82;;
78169;SDS011;67412;49.892;14.490;2023-04-26T13:01:51;2.20;;;1.00;;
78169;SDS011;67412;49.892;14.490;2023-04-26T13:04:16;1.90;;;0.50;;
78169;SDS011;67412;49.892;14.490;2023-04-26T13:06:42;2.67;;;0.90;;
78169;SDS011;67412;49.892;14.490;2023-04-26T13:09:07;5.70;;;1.10;;
78169;SDS011;67412;49.892;14.490;2023-04-26T13:11:32;3.35;;;0.60;;
78169;SDS011;67412;49.892;14.490;2023-04-26T13:13:58;4.38;;;0.85;;
78169;SDS011;67412;49.892;14.490;2023-04-26T13:16:23;4.75;;;1.30;;
78169;SDS011;67412;49.892;14.490;2023-04-26T13:18:50;5.47;;;1.10;;
78169;SDS011;67412;49.892;14.490;2023-04-26T13:21:15;5.10;;;1.05;;
78169;SDS011;67412;49.892;14.490;2023-04-26T13:23:41;3.22;;;0.90;;
78169;SDS011;67412;49.892;14.490;2023-04-26T13:26:06;4.35;;;1.35;;
78169;SDS011;67412;49.892;14.490;2023-04-26T13:28:32;9.02;;;2.90;;
78169;SDS011;67412;49.892;14.490;2023-04-26T13:30:58;5.75;;;1.55;;
78169;SDS011;67412;49.892;14.490;2023-04-26T13:33:23;3.40;;;0.82;;
78169;SDS011;67412;49.892;14.490;2023-04-26T13:35:49;4.50;;;1.02;;
78169;SDS011;67412;49.892;14.490;2023-04-26T13:38:14;4.90;;;1.10;;
78169;SDS011;67412;49.892;14.490;2023-04-26T13:40:39;4.07;;;0.98;;
78169;SDS011;67412;49.892;14.490;2023-04-26T13:43:05;5.18;;;1.23;;
78169;SDS011;67412;49.892;14.490;2023-04-26T13:45:30;5.38;;;1.33;;
78169;SDS011;67412;49.892;14.490;2023-04-26T13:47:56;3.13;;;1.25;;
78169;SDS011;67412;49.892;14.490;2023-04-26T13:50:21;3.30;;;0.85;;
78169;SDS011;67412;49.892;14.490;2023-04-26T13:52:46;4.90;;;1.48;;
78169;SDS011;67412;49.892;14.490;2023-04-26T13:55:14;4.93;;;1.65;;
78169;SDS011;67412;49.892;14.490;2023-04-26T13:57:40;3.38;;;1.27;;
78169;SDS011;67412;49.892;14.490;2023-04-26T14:00:06;3.90;;;1.33;;
78169;SDS011;67412;49.892;14.490;2023-04-26T14:02:32;5.10;;;0.98;;
78169;SDS011;67412;49.892;14.490;2023-04-26T14:04:58;3.30;;;0.90;;
78169;SDS011;67412;49.892;14.490;2023-04-26T14:07:23;4.13;;;1.00;;
78169;SDS011;67412;49.892;14.490;2023-04-26T14:09:49;3.42;;;0.80;;
78169;SDS011;67412;49.892;14.490;2023-04-26T14:12:15;5.53;;;1.42;;
78169;SDS011;67412;49.892;14.490;2023-04-26T14:14:40;2.05;;;0.90;;
78169;SDS011;67412;49.892;14.490;2023-04-26T14:17:06;6.80;;;1.27;;
78169;SDS011;67412;49.892;14.490;2023-04-26T14:19:31;2.42;;;0.90;;
78169;SDS011;67412;49.892;14.490;2023-04-26T14:21:57;3.08;;;1.08;;
78169;SDS011;67412;49.892;14.490;2023-04-26T14:24:22;4.00;;;0.95;;
78169;SDS011;67412;49.892;14.490;2023-04-26T14:26:48;4.50;;;1.00;;
78169;SDS011;67412;49.892;14.490;2023-04-26T14:29:13;1.40;;;0.90;;
78169;SDS011;67412;49.892;14.490;2023-04-26T14:31:38;1.35;;;0.70;;
78169;SDS011;67412;49.892;14.490;2023-04-26T14:34:04;4.22;;;1.35;;
78169;SDS011;67412;49.892;14.490;2023-04-26T14:36:29;2.55;;;0.90;;
78169;SDS011;67412;49.892;14.490;2023-04-26T14:38:55;3.80;;;0.85;;
78169;SDS011;67412;49.892;14.490;2023-04-26T14:41:21;6.53;;;1.63;;
78169;SDS011;67412;49.892;14.490;2023-04-26T14:43:46;2.03;;;0.80;;
78169;SDS011;67412;49.892;14.490;2023-04-26T14:46:12;3.80;;;1.00;;
78169;SDS011;67412;49.892;14.490;2023-04-26T14:48:38;4.50;;;0.80;;
78169;SDS011;67412;49.892;14.490;2023-04-26T14:51:03;1.85;;;0.80;;
78169;SDS011;67412;49.892;14.490;2023-04-26T14:53:29;3.38;;;1.00;;
78169;SDS011;67412;49.892;14.490;2023-04-26T14:55:55;4.20;;;1.10;;
78169;SDS011;67412;49.892;14.490;2023-04-26T14:58:21;2.70;;;0.90;;
78169;SDS011;67412;49.892;14.490;2023-04-26T15:00:47;4.68;;;1.20;;
78169;SDS011;67412;49.892;14.490;2023-04-26T15:03:12;2.90;;;0.90;;